createdAt,value
2022-11-19T00:00:45.450Z,6.70
2022-11-19T00:05:49.832Z,6.47
2022-11-19T00:10:53.499Z,7.03
2022-11-19T00:15:55.191Z,6.20
2022-11-19T00:21:02.896Z,8.03
2022-11-19T00:26:11.838Z,6.77
2022-11-19T00:31:15.388Z,6.60
2022-11-19T00:36:17.943Z,7.00
2022-11-19T00:41:21.676Z,7.00
2022-11-19T00:46:26.009Z,12.87
2022-11-19T00:51:30.357Z,10.80
2022-11-19T00:56:34.102Z,11.07
2022-11-19T01:01:36.244Z,11.47
2022-11-19T01:06:38.705Z,11.67
2022-11-19T01:11:42.291Z,9.70
2022-11-19T01:16:44.257Z,14.53
2022-11-19T01:21:46.260Z,9.73
2022-11-19T01:26:49.353Z,8.83
2022-11-19T01:31:51.333Z,11.43
2022-11-19T01:36:53.573Z,9.40
2022-11-19T01:41:56.995Z,11.63
2022-11-19T01:46:59.136Z,8.77
2022-11-19T01:52:03.797Z,11.30
2022-11-19T01:57:10.463Z,12.00
2022-11-19T02:02:13.008Z,6.70
2022-11-19T02:07:15.643Z,12.63
2022-11-19T02:12:33.565Z,11.23
2022-11-19T02:17:53.024Z,11.03
2022-11-19T02:23:11.840Z,10.27
2022-11-19T02:28:30.597Z,7.93
2022-11-19T02:33:42.498Z,9.83
2022-11-19T02:38:50.187Z,7.83
2022-11-19T02:43:54.882Z,9.53
2022-11-19T02:48:58.300Z,10.83
2022-11-19T02:54:00.463Z,8.33
2022-11-19T02:59:03.556Z,12.00
2022-11-19T03:04:09.480Z,7.90
2022-11-19T03:09:12.455Z,9.87
2022-11-19T03:14:21.312Z,9.57
2022-11-19T03:19:35.090Z,9.73
2022-11-19T03:24:42.086Z,6.67
2022-11-19T03:29:48.176Z,8.17
2022-11-19T03:34:57.314Z,6.73
2022-11-19T03:40:03.122Z,7.37
2022-11-19T03:45:12.086Z,8.77
2022-11-19T03:50:22.217Z,6.63
2022-11-19T03:55:31.426Z,8.00
2022-11-19T04:00:34.151Z,9.77
2022-11-19T04:05:37.646Z,7.77
2022-11-19T04:10:39.704Z,6.10
2022-11-19T04:15:41.925Z,6.70
2022-11-19T04:20:46.023Z,7.73
2022-11-19T04:25:48.190Z,5.23
2022-11-19T04:30:50.287Z,9.77
2022-11-19T04:35:53.943Z,6.10
2022-11-19T04:40:56.094Z,9.03
2022-11-19T04:45:58.189Z,6.07
2022-11-19T04:51:01.635Z,6.97
2022-11-19T04:56:04.211Z,6.30
2022-11-19T05:01:06.472Z,6.37
2022-11-19T05:06:10.104Z,6.60
2022-11-19T05:11:12.330Z,11.33
2022-11-19T05:16:14.412Z,5.33
2022-11-19T05:21:18.116Z,5.57
2022-11-19T05:26:20.325Z,7.83
2022-11-19T05:31:22.433Z,6.57
2022-11-19T05:36:25.708Z,7.23
2022-11-19T05:41:28.645Z,9.67
2022-11-19T05:46:30.544Z,5.67
2022-11-19T05:51:34.398Z,6.27
2022-11-19T05:56:36.810Z,10.07
2022-11-19T06:01:38.542Z,6.17
2022-11-19T06:06:42.483Z,7.67
2022-11-19T06:11:44.685Z,6.53
2022-11-19T06:16:46.818Z,6.23
2022-11-19T06:21:51.309Z,9.37
2022-11-19T06:26:53.554Z,10.53
2022-11-19T06:31:55.918Z,8.73
2022-11-19T06:36:59.489Z,7.87
2022-11-19T06:42:01.538Z,7.23
2022-11-19T06:47:03.734Z,7.83
2022-11-19T06:52:07.386Z,8.27
2022-11-19T06:57:09.753Z,7.97
2022-11-19T07:02:12.500Z,5.07
2022-11-19T07:07:16.389Z,7.57
2022-11-19T07:12:18.178Z,10.60
2022-11-19T07:17:19.937Z,8.00
2022-11-19T07:22:23.147Z,7.23
2022-11-19T07:27:24.880Z,7.63
2022-11-19T07:32:27.048Z,7.30
2022-11-19T07:37:30.144Z,10.63
2022-11-19T07:42:32.018Z,11.70
2022-11-19T07:47:34.364Z,7.50
2022-11-19T07:52:37.910Z,6.23
2022-11-19T07:57:39.702Z,7.20
2022-11-19T08:02:41.362Z,7.27
2022-11-19T08:07:44.850Z,6.03
2022-11-19T08:12:46.713Z,8.20
2022-11-19T08:17:48.432Z,7.97
2022-11-19T08:22:52.007Z,10.67
2022-11-19T08:27:53.767Z,9.17
2022-11-19T08:32:55.494Z,9.63
2022-11-19T08:37:58.535Z,6.67
2022-11-19T08:43:00.295Z,6.73
2022-11-19T08:48:05.138Z,8.07
2022-11-19T08:53:09.137Z,9.00
2022-11-19T08:58:11.956Z,6.20
2022-11-19T09:03:13.729Z,8.50
2022-11-19T09:08:17.083Z,7.83
2022-11-19T09:13:18.885Z,6.33
2022-11-19T09:18:21.233Z,6.53
2022-11-19T09:23:25.980Z,5.23
2022-11-19T09:28:29.352Z,5.37
2022-11-19T09:33:37.445Z,8.33
2022-11-19T09:38:42.903Z,4.50
2022-11-19T09:43:55.604Z,5.87
2022-11-19T09:49:04.462Z,4.57
2022-11-19T09:54:12.318Z,5.47
2022-11-19T09:59:24.894Z,4.90
2022-11-19T10:04:31.618Z,4.40
2022-11-19T10:09:47.474Z,4.10
2022-11-19T10:15:14.238Z,4.67
2022-11-19T10:20:34.472Z,5.13
2022-11-19T10:25:42.556Z,4.30
2022-11-19T10:30:50.605Z,6.13
2022-11-19T10:35:57.892Z,4.07
2022-11-19T10:41:08.743Z,4.97
2022-11-19T10:46:15.384Z,2.73
2022-11-19T10:51:23.245Z,4.33
2022-11-19T10:56:35.572Z,2.77
2022-11-19T11:01:40.756Z,3.20
2022-11-19T11:06:51.095Z,4.73
2022-11-19T11:11:54.724Z,2.70
2022-11-19T11:16:56.431Z,4.13
2022-11-19T11:21:58.769Z,3.03
2022-11-19T11:27:20.169Z,3.27
2022-11-19T11:32:30.340Z,3.80
2022-11-19T11:37:33.582Z,6.47
2022-11-19T11:42:37.329Z,2.63
2022-11-19T11:47:40.099Z,3.53
2022-11-19T11:52:45.313Z,3.87
2022-11-19T11:57:55.295Z,3.00
2022-11-19T12:03:02.133Z,2.73
2022-11-19T12:08:06.776Z,2.83
2022-11-19T12:13:39.470Z,2.53
2022-11-19T12:18:50.312Z,2.73
2022-11-19T12:24:07.646Z,2.33
2022-11-19T12:29:25.913Z,2.73
2022-11-19T12:35:03.317Z,3.13
2022-11-19T12:40:20.430Z,2.23
2022-11-19T12:45:32.889Z,1.63
2022-11-19T12:50:49.105Z,1.40
2022-11-19T12:55:59.763Z,2.73
2022-11-19T13:01:09.358Z,2.00
2022-11-19T13:06:18.290Z,2.00
2022-11-19T13:11:24.570Z,2.30
2022-11-19T13:16:31.042Z,2.50
2022-11-19T13:21:43.876Z,3.20
2022-11-19T13:26:46.360Z,2.53
2022-11-19T13:31:55.600Z,4.47
2022-11-19T13:37:02.655Z,2.30
2022-11-19T13:42:07.901Z,2.57
2022-11-19T13:47:17.616Z,3.37
2022-11-19T13:52:26.174Z,3.77
2022-11-19T13:57:31.296Z,4.67
2022-11-19T14:03:05.929Z,3.70
2022-11-19T14:08:40.782Z,4.20
2022-11-19T14:14:01.724Z,3.90
2022-11-19T14:19:12.722Z,3.57
2022-11-19T14:24:47.689Z,2.53
2022-11-19T14:29:58.480Z,2.93
2022-11-19T14:35:33.695Z,3.37
2022-11-19T14:40:40.838Z,3.77
2022-11-19T14:46:18.222Z,2.13
2022-11-19T14:51:30.895Z,3.53
2022-11-19T14:56:35.934Z,4.53
2022-11-19T15:01:52.822Z,4.23
2022-11-19T15:06:57.215Z,4.00
2022-11-19T15:12:00.783Z,3.10
2022-11-19T15:17:04.012Z,2.83
2022-11-19T15:22:38.210Z,3.83
2022-11-19T15:27:55.228Z,3.30
2022-11-19T15:33:16.382Z,2.57
2022-11-19T15:38:28.065Z,6.07
2022-11-19T15:43:35.295Z,2.87
2022-11-19T15:48:42.777Z,3.23
2022-11-19T15:53:59.482Z,4.00
2022-11-19T15:59:02.148Z,4.23
2022-11-19T16:04:07.867Z,9.20
2022-11-19T16:09:18.460Z,4.50
2022-11-19T16:14:22.228Z,4.07
2022-11-19T16:19:24.678Z,4.20
2022-11-19T16:24:32.052Z,4.73
2022-11-19T16:29:39.068Z,4.60
2022-11-19T16:34:41.237Z,5.07
2022-11-19T16:39:51.289Z,4.23
2022-11-19T16:44:55.228Z,5.40
2022-11-19T16:50:02.300Z,4.13
2022-11-19T16:55:06.942Z,4.93
2022-11-19T17:00:15.480Z,5.90
2022-11-19T17:05:19.622Z,5.80
2022-11-19T17:10:29.678Z,3.53
2022-11-19T17:15:42.300Z,4.23
2022-11-19T17:20:55.523Z,5.10
2022-11-19T17:26:01.325Z,6.00
2022-11-19T17:31:14.298Z,5.47
2022-11-19T17:36:16.151Z,5.33
2022-11-19T17:41:23.108Z,5.67
2022-11-19T17:46:26.756Z,7.63
2022-11-19T17:51:28.476Z,6.37
2022-11-19T17:56:31.656Z,7.93
2022-11-19T18:01:33.599Z,5.17
2022-11-19T18:06:35.461Z,5.30
2022-11-19T18:11:43.045Z,6.50
2022-11-19T18:16:44.774Z,6.50
2022-11-19T18:21:46.501Z,6.70
2022-11-19T18:26:49.969Z,6.20
2022-11-19T18:31:52.255Z,5.37
2022-11-19T18:36:54.365Z,6.43
2022-11-19T18:41:58.061Z,5.33
2022-11-19T18:47:00.127Z,6.57
2022-11-19T18:52:02.615Z,7.00
2022-11-19T18:57:05.823Z,5.73
2022-11-19T19:02:09.780Z,8.30
2022-11-19T19:07:11.968Z,10.37
2022-11-19T19:12:15.668Z,9.57
2022-11-19T19:17:17.912Z,5.57
2022-11-19T19:22:20.174Z,6.63
2022-11-19T19:27:23.591Z,6.73
2022-11-19T19:32:25.919Z,6.50
2022-11-19T19:37:27.675Z,7.03
2022-11-19T19:42:31.304Z,6.83
2022-11-19T19:47:33.095Z,5.53
2022-11-19T19:52:35.208Z,4.97
2022-11-19T19:57:38.403Z,6.83
2022-11-19T20:02:40.525Z,7.17
2022-11-19T20:07:42.931Z,8.33
2022-11-19T20:12:46.010Z,6.20
2022-11-19T20:17:47.986Z,5.83
2022-11-19T20:22:50.055Z,7.23
2022-11-19T20:27:53.734Z,8.17
2022-11-19T20:32:55.549Z,8.63
2022-11-19T20:38:02.249Z,9.13
2022-11-19T20:43:06.467Z,7.33
2022-11-19T20:48:08.696Z,5.90
2022-11-19T20:53:11.208Z,7.57
2022-11-19T20:58:14.472Z,7.43
2022-11-19T21:03:16.318Z,8.10
2022-11-19T21:08:18.127Z,6.77
2022-11-19T21:13:21.503Z,8.23
2022-11-19T21:18:24.651Z,6.57
2022-11-19T21:23:26.556Z,6.97
2022-11-19T21:28:31.875Z,10.10
2022-11-19T21:33:34.239Z,8.23
2022-11-19T21:38:39.817Z,9.23
2022-11-19T21:43:43.062Z,10.83
2022-11-19T21:48:44.825Z,7.00
2022-11-19T21:53:46.717Z,8.83
2022-11-19T21:58:49.882Z,8.37
2022-11-19T22:03:52.078Z,7.53
2022-11-19T22:08:54.197Z,7.83
2022-11-19T22:14:02.265Z,9.30
2022-11-19T22:19:05.020Z,8.57
2022-11-19T22:24:07.005Z,7.37
2022-11-19T22:29:10.553Z,8.33
2022-11-19T22:34:12.684Z,8.23
2022-11-19T22:39:14.367Z,11.57
2022-11-19T22:44:17.785Z,9.33
2022-11-19T22:49:20.275Z,9.73
2022-11-19T22:54:22.462Z,9.57
2022-11-19T22:59:25.708Z,7.63
2022-11-19T23:04:28.024Z,18.20
2022-11-19T23:09:30.149Z,8.60
2022-11-19T23:14:33.534Z,7.67
2022-11-19T23:19:37.502Z,10.13
2022-11-19T23:24:39.653Z,9.30
2022-11-19T23:29:42.991Z,8.17
2022-11-19T23:34:45.154Z,10.30
2022-11-19T23:39:47.088Z,10.17
2022-11-19T23:44:50.530Z,9.43
2022-11-19T23:49:52.676Z,10.20
2022-11-19T23:54:54.755Z,10.00
2022-11-19T23:59:58.228Z,12.27
